createdAt,value
2018-09-04T00:01:32.238Z,6.73
2018-09-04T00:04:00.506Z,6.90
2018-09-04T00:06:28.752Z,6.43
2018-09-04T00:08:57.025Z,5.90
2018-09-04T00:11:25.225Z,6.90
2018-09-04T00:13:53.467Z,6.47
2018-09-04T00:16:22.061Z,6.67
2018-09-04T00:18:50.265Z,7.60
2018-09-04T00:21:18.441Z,7.57
2018-09-04T00:23:46.609Z,7.90
2018-09-04T00:26:14.872Z,7.67
2018-09-04T00:28:43.125Z,7.43
2018-09-04T00:31:11.413Z,7.97
2018-09-04T00:33:39.722Z,8.23
2018-09-04T00:36:08.507Z,8.20
2018-09-04T00:38:36.669Z,8.30
2018-09-04T00:41:04.941Z,8.60
2018-09-04T00:43:33.202Z,9.30
2018-09-04T00:46:02.002Z,9.10
2018-09-04T00:48:30.408Z,9.57
2018-09-04T00:50:58.603Z,9.07
2018-09-04T00:53:26.820Z,9.40
2018-09-04T00:55:55.055Z,9.70
2018-09-04T00:58:23.268Z,10.30
2018-09-04T01:00:51.472Z,10.23
2018-09-04T01:03:19.728Z,10.60
2018-09-04T01:05:47.994Z,10.57
2018-09-04T01:08:16.274Z,11.27
2018-09-04T01:10:44.577Z,11.63
2018-09-04T01:13:12.761Z,10.90
2018-09-04T01:15:41.198Z,9.50
2018-09-04T01:18:09.743Z,9.10
2018-09-04T01:20:37.970Z,10.20
2018-09-04T01:23:06.339Z,10.00
2018-09-04T01:25:34.645Z,9.57
2018-09-04T01:28:02.897Z,9.20
2018-09-04T01:30:31.061Z,9.97
2018-09-04T01:32:59.268Z,10.40
2018-09-04T01:35:28.873Z,10.23
2018-09-04T01:37:57.069Z,9.17
2018-09-04T01:40:25.310Z,10.30
2018-09-04T01:42:53.605Z,11.17
2018-09-04T01:45:22.207Z,10.67
2018-09-04T01:47:50.444Z,10.60
2018-09-04T01:50:18.860Z,10.20
2018-09-04T01:52:47.041Z,10.23
2018-09-04T01:55:15.401Z,9.87
2018-09-04T01:57:43.589Z,11.33
2018-09-04T02:00:12.178Z,12.40
2018-09-04T02:02:40.616Z,11.07
2018-09-04T02:05:08.818Z,12.17
2018-09-04T02:07:37.054Z,11.73
2018-09-04T02:10:05.252Z,10.67
2018-09-04T02:12:33.422Z,12.00
2018-09-04T02:15:01.679Z,11.40
2018-09-04T02:17:29.864Z,12.00
2018-09-04T02:19:58.124Z,13.10
2018-09-04T02:22:26.305Z,10.97
2018-09-04T02:24:54.493Z,11.93
2018-09-04T02:27:22.674Z,11.80
2018-09-04T02:29:50.931Z,11.80
2018-09-04T02:32:19.257Z,10.77
2018-09-04T02:34:47.454Z,11.40
2018-09-04T02:37:15.653Z,11.53
2018-09-04T02:39:44.065Z,10.53
2018-09-04T02:42:12.305Z,11.80
2018-09-04T02:44:40.499Z,10.40
2018-09-04T02:47:08.711Z,10.57
2018-09-04T02:49:36.927Z,10.70
2018-09-04T02:52:05.251Z,11.03
2018-09-04T02:54:33.437Z,9.60
2018-09-04T02:57:01.661Z,10.33
2018-09-04T02:59:29.836Z,10.93
2018-09-04T03:01:58.433Z,10.73
2018-09-04T03:04:26.694Z,10.80
2018-09-04T03:06:54.877Z,9.33
2018-09-04T03:09:23.159Z,10.50
2018-09-04T03:11:51.414Z,9.60
2018-09-04T03:14:19.728Z,9.73
2018-09-04T03:16:47.914Z,9.73
2018-09-04T03:19:16.087Z,8.80
2018-09-04T03:21:44.474Z,8.63
2018-09-04T03:24:12.714Z,8.30
2018-09-04T03:26:40.877Z,7.63
2018-09-04T03:29:09.056Z,6.97
2018-09-04T03:31:37.254Z,7.40
2018-09-04T03:34:05.913Z,6.97
2018-09-04T03:36:34.123Z,6.37
2018-09-04T03:39:02.521Z,7.20
2018-09-04T03:41:30.725Z,7.83
2018-09-04T03:43:59.831Z,7.30
2018-09-04T03:46:28.023Z,6.03
2018-09-04T03:48:56.281Z,6.33
2018-09-04T03:51:24.453Z,47.23
2018-09-04T03:53:52.651Z,14.73
2018-09-04T03:56:20.903Z,7.53
2018-09-04T03:58:49.069Z,6.43
2018-09-04T04:01:17.385Z,5.90
2018-09-04T04:03:45.833Z,5.80
2018-09-04T04:06:14.020Z,7.37
2018-09-04T04:08:42.299Z,5.90
2018-09-04T04:11:10.464Z,6.50
2018-09-04T04:13:38.744Z,5.80
2018-09-04T04:16:06.912Z,5.60
2018-09-04T04:18:35.080Z,5.27
2018-09-04T04:21:03.264Z,6.00
2018-09-04T04:23:31.709Z,5.27
2018-09-04T04:26:01.330Z,4.97
2018-09-04T04:28:29.490Z,6.07
2018-09-04T04:30:57.940Z,14.77
2018-09-04T04:33:26.113Z,30.07
2018-09-04T04:35:54.305Z,12.57
2018-09-04T04:38:22.478Z,5.40
2018-09-04T04:40:50.645Z,5.67
2018-09-04T04:43:18.810Z,6.70
2018-09-04T04:45:47.053Z,7.03
2018-09-04T04:48:15.587Z,7.60
2018-09-04T04:50:43.697Z,7.10
2018-09-04T04:53:12.145Z,7.03
2018-09-04T04:55:40.305Z,6.60
2018-09-04T04:58:08.513Z,7.00
2018-09-04T05:00:36.695Z,6.17
2018-09-04T05:03:04.869Z,5.47
2018-09-04T05:05:33.040Z,5.80
2018-09-04T05:08:01.264Z,5.80
2018-09-04T05:10:29.444Z,5.80
2018-09-04T05:12:57.686Z,6.00
2018-09-04T05:15:25.966Z,6.40
2018-09-04T05:17:54.150Z,6.43
2018-09-04T05:20:25.670Z,6.33
2018-09-04T05:22:53.902Z,7.27
2018-09-04T05:25:22.060Z,8.43
2018-09-04T05:27:50.322Z,6.87
2018-09-04T05:30:18.590Z,6.90
2018-09-04T05:33:00.086Z,11.50
2018-09-04T05:35:33.890Z,10.17
2018-09-04T05:38:02.031Z,15.00
2018-09-04T05:40:30.230Z,13.97
2018-09-04T05:43:00.938Z,10.43
2018-09-04T05:45:30.349Z,9.50
2018-09-04T05:48:03.198Z,9.37
2018-09-04T05:50:31.446Z,9.77
2018-09-04T05:52:59.634Z,10.00
2018-09-04T05:55:28.089Z,9.27
2018-09-04T05:57:56.798Z,8.90
2018-09-04T06:00:27.118Z,11.17
2018-09-04T06:02:55.364Z,10.50
2018-09-04T06:05:23.896Z,10.80
2018-09-04T06:07:52.476Z,13.00
2018-09-04T06:10:20.706Z,11.90
2018-09-04T06:12:49.249Z,11.10
2018-09-04T06:15:17.667Z,11.03
2018-09-04T06:17:46.014Z,11.43
2018-09-04T06:20:14.269Z,11.00
2018-09-04T06:22:42.506Z,12.23
2018-09-04T06:25:11.212Z,11.80
2018-09-04T06:27:39.503Z,10.97
2018-09-04T06:30:08.395Z,11.47
2018-09-04T06:32:36.880Z,10.40
2018-09-04T06:35:06.988Z,10.80
2018-09-04T06:37:35.221Z,8.50
2018-09-04T06:40:03.440Z,8.90
2018-09-04T06:42:31.656Z,9.43
2018-09-04T06:44:59.841Z,9.50
2018-09-04T06:47:28.387Z,9.00
2018-09-04T06:49:56.653Z,9.50
2018-09-04T06:52:24.831Z,7.93
2018-09-04T06:54:53.145Z,9.00
2018-09-04T06:57:21.342Z,8.37
2018-09-04T06:59:49.505Z,8.50
2018-09-04T07:02:17.684Z,9.27
2018-09-04T07:04:45.865Z,8.50
2018-09-04T07:07:14.121Z,8.53
2018-09-04T07:09:42.329Z,9.03
2018-09-04T07:12:11.076Z,8.70
2018-09-04T07:14:39.259Z,9.57
2018-09-04T07:17:07.489Z,7.50
2018-09-04T07:19:35.615Z,8.17
2018-09-04T07:22:03.794Z,7.57
2018-09-04T07:24:32.287Z,6.73
2018-09-04T07:27:00.556Z,8.00
2018-09-04T07:29:28.839Z,8.57
2018-09-04T07:31:57.098Z,7.40
2018-09-04T07:34:25.405Z,6.70
2018-09-04T07:36:53.686Z,4.90
2018-09-04T07:39:21.868Z,5.00
2018-09-04T07:41:50.123Z,5.50
2018-09-04T07:44:18.277Z,6.87
2018-09-04T07:46:46.573Z,6.47
2018-09-04T07:49:14.846Z,5.53
2018-09-04T07:51:43.063Z,5.50
2018-09-04T07:54:11.277Z,4.40
2018-09-04T07:56:39.885Z,5.30
2018-09-04T07:59:08.093Z,4.60
2018-09-04T08:01:36.265Z,3.87
2018-09-04T08:04:04.501Z,4.20
2018-09-04T08:06:32.762Z,4.50
2018-09-04T08:09:00.933Z,5.03
2018-09-04T08:11:29.367Z,4.43
2018-09-04T08:13:57.581Z,5.03
2018-09-04T08:16:25.816Z,4.30
2018-09-04T08:18:53.963Z,4.73
2018-09-04T08:21:22.283Z,4.60
2018-09-04T08:23:50.443Z,4.10
2018-09-04T08:26:18.629Z,4.43
2018-09-04T08:28:46.836Z,5.00
2018-09-04T08:31:15.013Z,5.10
2018-09-04T08:33:43.236Z,3.93
2018-09-04T08:36:11.402Z,4.00
2018-09-04T08:38:45.238Z,4.57
2018-09-04T08:41:13.439Z,4.70
2018-09-04T08:43:41.642Z,5.40
2018-09-04T08:46:09.926Z,6.10
2018-09-04T08:48:38.272Z,6.30
2018-09-04T08:51:06.446Z,6.10
2018-09-04T08:53:34.685Z,5.13
2018-09-04T08:56:03.605Z,6.33
2018-09-04T08:58:31.795Z,5.40
2018-09-04T09:00:59.977Z,5.50
2018-09-04T09:03:28.258Z,5.00
2018-09-04T09:05:56.462Z,5.10
2018-09-04T09:08:24.679Z,6.03
2018-09-04T09:10:52.845Z,5.27
2018-09-04T09:13:21.008Z,5.07
2018-09-04T09:15:49.805Z,5.50
2018-09-04T09:18:17.980Z,5.33
2018-09-04T09:20:46.163Z,5.50
2018-09-04T09:23:14.777Z,5.60
2018-09-04T09:25:42.986Z,5.50
2018-09-04T09:28:11.253Z,6.00
2018-09-04T09:30:39.470Z,5.80
2018-09-04T09:33:07.651Z,4.80
2018-09-04T09:35:37.055Z,6.47
2018-09-04T09:38:05.353Z,7.13
2018-09-04T09:40:34.245Z,6.10
2018-09-04T09:43:02.509Z,5.50
2018-09-04T09:45:30.799Z,6.13
2018-09-04T09:47:58.978Z,5.13
2018-09-04T09:50:27.153Z,5.30
2018-09-04T09:52:55.484Z,5.33
2018-09-04T09:55:23.683Z,5.33
2018-09-04T09:57:51.850Z,4.97
2018-09-04T10:00:25.466Z,5.53
2018-09-04T10:02:59.010Z,6.20
2018-09-04T10:05:27.190Z,5.60
2018-09-04T10:07:55.465Z,5.47
2018-09-04T10:10:23.582Z,5.40
2018-09-04T10:12:51.872Z,5.90
2018-09-04T10:15:20.045Z,5.23
2018-09-04T10:17:48.217Z,5.00
2018-09-04T10:20:16.435Z,6.00
2018-09-04T10:22:44.617Z,5.33
2018-09-04T10:25:12.829Z,5.43
2018-09-04T10:27:41.053Z,5.73
2018-09-04T10:30:15.185Z,6.60
2018-09-04T10:32:50.925Z,5.40
2018-09-04T10:35:20.241Z,5.50
2018-09-04T10:37:48.494Z,5.27
2018-09-04T10:40:22.327Z,6.27
2018-09-04T10:42:50.531Z,4.87
2018-09-04T10:45:24.143Z,5.77
2018-09-04T10:47:52.674Z,5.37
2018-09-04T10:50:21.238Z,6.20
2018-09-04T10:52:49.638Z,6.00
2018-09-04T10:55:17.971Z,5.40
2018-09-04T10:57:46.258Z,5.40
2018-09-04T11:00:15.361Z,4.90
2018-09-04T11:02:43.621Z,5.30
2018-09-04T11:05:11.877Z,5.20
2018-09-04T11:07:40.080Z,5.70
2018-09-04T11:10:08.522Z,5.70
2018-09-04T11:12:36.806Z,6.27
2018-09-04T11:15:05.098Z,5.57
2018-09-04T11:17:33.653Z,5.90
2018-09-04T11:20:01.946Z,6.20
2018-09-04T11:22:30.149Z,5.37
2018-09-04T11:24:58.387Z,6.80
2018-09-04T11:27:26.657Z,5.93
2018-09-04T11:29:55.212Z,5.63
2018-09-04T11:32:23.378Z,6.47
2018-09-04T11:34:51.593Z,6.50
2018-09-04T11:37:20.075Z,6.70
2018-09-04T11:39:48.383Z,6.30
2018-09-04T11:42:16.637Z,6.30
2018-09-04T11:44:45.285Z,6.37
2018-09-04T11:47:13.925Z,6.63
2018-09-04T11:49:42.844Z,7.00
2018-09-04T11:52:11.644Z,7.27
2018-09-04T11:54:39.908Z,7.00
2018-09-04T11:57:08.102Z,7.57
2018-09-04T11:59:39.208Z,7.37
2018-09-04T12:02:11.398Z,6.80
2018-09-04T12:04:39.779Z,7.63
2018-09-04T12:07:07.941Z,7.53
2018-09-04T12:09:36.107Z,7.77
2018-09-04T12:12:04.352Z,7.20
2018-09-04T12:14:39.188Z,6.07
2018-09-04T12:17:08.534Z,6.30
2018-09-04T12:19:50.032Z,7.07
2018-09-04T12:22:18.223Z,8.07
2018-09-04T12:24:46.474Z,7.27
2018-09-04T12:27:14.776Z,7.87
2018-09-04T12:29:43.100Z,6.57
2018-09-04T12:32:11.305Z,8.10
2018-09-04T12:34:39.470Z,6.70
2018-09-04T12:37:07.660Z,7.60
2018-09-04T12:39:35.870Z,7.73
2018-09-04T12:42:04.123Z,7.50
2018-09-04T12:44:32.425Z,8.07
2018-09-04T12:47:00.816Z,7.40
2018-09-04T12:49:29.912Z,7.87
2018-09-04T12:51:58.481Z,7.43
2018-09-04T12:54:26.659Z,7.77
2018-09-04T12:56:54.929Z,8.90
2018-09-04T12:59:23.205Z,10.40
2018-09-04T13:01:51.401Z,9.80
2018-09-04T13:04:19.641Z,9.80
2018-09-04T13:06:47.843Z,11.27
2018-09-04T13:09:16.077Z,10.73
2018-09-04T13:11:44.273Z,10.50
2018-09-04T13:14:12.557Z,12.53
2018-09-04T13:16:40.746Z,12.00
2018-09-04T13:19:08.996Z,11.37
2018-09-04T13:21:37.276Z,11.23
2018-09-04T13:24:05.612Z,11.97
2018-09-04T13:26:34.143Z,12.77
2018-09-04T13:29:02.372Z,13.90
2018-09-04T13:31:30.902Z,14.00
2018-09-04T13:33:59.154Z,13.77
2018-09-04T13:36:27.466Z,12.63
2018-09-04T13:38:55.748Z,13.50
2018-09-04T13:41:23.938Z,14.43
2018-09-04T13:43:52.171Z,12.00
2018-09-04T13:46:20.708Z,13.43
2018-09-04T13:48:49.210Z,14.50
2018-09-04T13:51:17.413Z,12.93
2018-09-04T13:53:45.637Z,11.67
2018-09-04T13:56:13.809Z,14.17
2018-09-04T13:58:42.053Z,12.70
2018-09-04T14:01:10.241Z,13.50
2018-09-04T14:03:38.513Z,11.40
2018-09-04T14:06:06.845Z,10.60
2018-09-04T14:08:35.054Z,11.90
2018-09-04T14:11:03.223Z,12.17
2018-09-04T14:13:31.453Z,13.70
2018-09-04T14:16:01.873Z,11.50
2018-09-04T14:18:30.049Z,11.37
2018-09-04T14:20:58.504Z,12.23
2018-09-04T14:23:26.730Z,10.87
2018-09-04T14:25:54.916Z,11.67
2018-09-04T14:28:40.969Z,11.93
2018-09-04T14:30:51.768Z,12.53
2018-09-04T14:33:19.758Z,11.80
2018-09-04T14:35:47.960Z,11.90
2018-09-04T14:38:16.146Z,13.10
2018-09-04T14:40:44.666Z,11.50
2018-09-04T14:43:12.858Z,12.27
2018-09-04T14:45:41.032Z,12.33
2018-09-04T14:48:09.220Z,12.23
2018-09-04T14:50:37.472Z,13.53
2018-09-04T14:53:05.728Z,12.33
2018-09-04T14:55:34.030Z,12.13
2018-09-04T14:58:02.225Z,12.53
2018-09-04T15:00:30.681Z,11.40
2018-09-04T15:02:58.947Z,12.63
2018-09-04T15:05:27.241Z,13.77
2018-09-04T15:07:55.488Z,14.30
2018-09-04T15:10:23.777Z,12.60
2018-09-04T15:12:52.155Z,13.90
2018-09-04T15:15:20.683Z,13.97
2018-09-04T15:17:48.958Z,13.50
2018-09-04T15:20:17.217Z,14.43
2018-09-04T15:22:45.459Z,14.63
2018-09-04T15:25:13.996Z,15.00
2018-09-04T15:27:42.389Z,13.27
2018-09-04T15:30:10.705Z,13.17
2018-09-04T15:32:38.975Z,14.10
2018-09-04T15:35:08.897Z,14.80
2018-09-04T15:37:37.074Z,14.80
2018-09-04T15:40:05.350Z,17.60
2018-09-04T15:42:33.605Z,18.43
2018-09-04T15:45:01.788Z,18.10
2018-09-04T15:47:29.966Z,16.93
2018-09-04T15:49:58.510Z,16.27
2018-09-04T15:52:26.685Z,42.20
2018-09-04T15:54:54.858Z,19.40
2018-09-04T15:57:23.080Z,17.47
2018-09-04T15:59:51.356Z,17.60
2018-09-04T16:02:19.595Z,24.67
2018-09-04T16:04:47.829Z,22.40
2018-09-04T16:07:16.093Z,17.50
2018-09-04T16:09:44.417Z,18.10
2018-09-04T16:12:12.574Z,17.43
2018-09-04T16:14:40.805Z,20.30
2018-09-04T16:17:09.073Z,19.50
2018-09-04T16:19:37.253Z,24.40
2018-09-04T16:22:05.844Z,19.77
2018-09-04T16:24:34.189Z,18.20
2018-09-04T16:27:02.404Z,19.63
2018-09-04T16:29:30.662Z,20.80
2018-09-04T16:31:58.936Z,20.40
2018-09-04T16:34:27.367Z,20.43
2018-09-04T16:36:55.547Z,20.10
2018-09-04T16:39:23.787Z,20.97
2018-09-04T16:41:52.124Z,21.10
2018-09-04T16:44:20.904Z,20.83
2018-09-04T16:46:49.186Z,22.13
2018-09-04T16:49:17.406Z,21.60
2018-09-04T16:51:45.586Z,22.10
2018-09-04T16:54:13.830Z,23.43
2018-09-04T16:56:42.052Z,23.37
2018-09-04T16:59:10.305Z,37.30
2018-09-04T17:01:38.485Z,32.23
2018-09-04T17:04:06.752Z,28.60
2018-09-04T17:06:35.007Z,24.13
2018-09-04T17:09:03.758Z,28.20
2018-09-04T17:11:31.972Z,46.63
2018-09-04T17:14:00.470Z,35.03
2018-09-04T17:16:28.745Z,30.67
2018-09-04T17:18:57.015Z,28.83
2018-09-04T17:21:25.809Z,29.27
2018-09-04T17:23:54.039Z,27.80
2018-09-04T17:26:22.213Z,28.47
2018-09-04T17:28:50.529Z,35.40
2018-09-04T17:31:18.703Z,31.10
2018-09-04T17:33:46.881Z,29.27
2018-09-04T17:36:15.066Z,28.17
2018-09-04T17:38:43.309Z,29.03
2018-09-04T17:41:11.508Z,27.90
2018-09-04T17:43:39.816Z,29.23
2018-09-04T17:46:08.072Z,28.47
2018-09-04T17:48:36.650Z,28.10
2018-09-04T17:51:04.882Z,29.37
2018-09-04T17:53:33.517Z,28.17
2018-09-04T17:56:02.577Z,30.37
2018-09-04T17:58:30.810Z,30.80
2018-09-04T18:00:59.122Z,30.43
2018-09-04T18:03:27.321Z,32.80
2018-09-04T18:05:55.501Z,32.70
2018-09-04T18:08:23.770Z,32.43
2018-09-04T18:10:52.097Z,30.90
2018-09-04T18:13:20.626Z,33.00
2018-09-04T18:15:48.863Z,31.70
2018-09-04T18:18:17.061Z,33.47
2018-09-04T18:20:45.269Z,31.77
2018-09-04T18:23:13.528Z,117.33
2018-09-04T18:25:41.719Z,69.47
2018-09-04T18:28:09.985Z,38.10
2018-09-04T18:30:38.643Z,32.20
2018-09-04T18:33:07.056Z,34.87
2018-09-04T18:35:35.367Z,34.07
2018-09-04T18:38:03.620Z,33.83
2018-09-04T18:40:32.196Z,34.37
2018-09-04T18:43:00.672Z,34.37
2018-09-04T18:45:41.752Z,33.30
2018-09-04T18:48:09.934Z,35.83
2018-09-04T18:50:38.179Z,35.97
2018-09-04T18:53:06.916Z,34.10
2018-09-04T18:55:35.174Z,36.83
2018-09-04T18:58:03.426Z,35.23
2018-09-04T19:00:31.634Z,34.87
2018-09-04T19:02:59.917Z,34.47
2018-09-04T19:05:28.314Z,35.47
2018-09-04T19:07:56.550Z,35.17
2018-09-04T19:10:24.815Z,35.93
2018-09-04T19:12:53.022Z,37.90
2018-09-04T19:15:21.402Z,37.47
2018-09-04T19:17:49.578Z,35.30
2018-09-04T19:20:17.870Z,44.80
2018-09-04T19:22:46.751Z,41.93
2018-09-04T19:25:15.229Z,33.50
2018-09-04T19:27:43.425Z,32.37
2018-09-04T19:30:11.741Z,49.00
2018-09-04T19:32:40.161Z,36.57
2018-09-04T19:35:09.793Z,35.87
2018-09-04T19:37:38.192Z,34.20
2018-09-04T19:40:07.083Z,55.23
2018-09-04T19:42:35.524Z,56.07
2018-09-04T19:45:04.951Z,50.13
2018-09-04T19:47:33.166Z,64.77
2018-09-04T19:50:01.536Z,51.00
2018-09-04T19:52:29.788Z,37.60
2018-09-04T19:54:57.980Z,38.47
2018-09-04T19:57:26.239Z,40.17
2018-09-04T19:59:54.437Z,61.90
2018-09-04T20:02:22.686Z,45.87
2018-09-04T20:04:50.866Z,54.60
2018-09-04T20:07:19.153Z,48.37
2018-09-04T20:09:47.328Z,38.37
2018-09-04T20:12:15.618Z,37.23
2018-09-04T20:14:43.814Z,36.30
2018-09-04T20:17:11.997Z,36.13
2018-09-04T20:19:40.221Z,35.73
2018-09-04T20:22:09.269Z,35.50
2018-09-04T20:24:37.443Z,38.83
2018-09-04T20:27:05.662Z,37.60
2018-09-04T20:29:34.228Z,37.73
2018-09-04T20:32:02.387Z,35.60
2018-09-04T20:34:30.717Z,35.07
2018-09-04T20:36:59.035Z,34.90
2018-09-04T20:39:27.399Z,35.07
2018-09-04T20:41:56.124Z,35.23
2018-09-04T20:44:24.573Z,35.77
2018-09-04T20:46:52.831Z,36.35
2018-09-04T20:49:21.093Z,35.80
2018-09-04T20:51:49.588Z,36.20
2018-09-04T20:54:18.152Z,34.67
2018-09-04T20:57:10.096Z,35.57
2018-09-04T20:59:49.831Z,36.67
2018-09-04T21:02:29.306Z,38.10
2018-09-04T21:05:08.780Z,44.07
2018-09-04T21:07:52.231Z,50.37
2018-09-04T21:10:20.743Z,48.43
2018-09-04T21:12:49.015Z,36.50
2018-09-04T21:15:17.404Z,36.07
2018-09-04T21:17:45.952Z,39.50
2018-09-04T21:20:14.209Z,41.70
2018-09-04T21:22:42.514Z,38.13
2018-09-04T21:25:10.717Z,35.00
2018-09-04T21:27:38.898Z,33.90
2018-09-04T21:30:07.149Z,37.30
2018-09-04T21:32:35.393Z,36.70
2018-09-04T21:35:04.985Z,39.30
2018-09-04T21:37:33.201Z,39.00
2018-09-04T21:40:01.385Z,36.97
2018-09-04T21:42:29.697Z,39.40
2018-09-04T21:44:58.014Z,35.13
2018-09-04T21:47:26.201Z,34.63
2018-09-04T21:49:54.605Z,35.43
2018-09-04T21:52:22.943Z,38.00
2018-09-04T21:54:51.374Z,35.83
2018-09-04T21:57:19.620Z,36.30
2018-09-04T21:59:47.876Z,37.67
2018-09-04T22:02:16.083Z,37.80
2018-09-04T22:04:44.627Z,38.10
2018-09-04T22:07:13.093Z,43.13
2018-09-04T22:09:41.380Z,42.10
2018-09-04T22:12:11.044Z,39.63
2018-09-04T22:14:39.522Z,41.27
2018-09-04T22:17:08.012Z,42.30
2018-09-04T22:19:36.225Z,39.90
2018-09-04T22:22:04.925Z,41.17
2018-09-04T22:24:34.974Z,36.97
2018-09-04T22:27:07.355Z,39.60
2018-09-04T22:29:36.576Z,43.97
2018-09-04T22:32:05.022Z,42.10
2018-09-04T22:34:33.622Z,41.73
2018-09-04T22:37:03.110Z,42.50
2018-09-04T22:39:38.122Z,41.07
2018-09-04T22:42:06.396Z,43.17
2018-09-04T22:44:34.578Z,43.17
2018-09-04T22:47:02.853Z,41.93
2018-09-04T22:49:31.146Z,43.67
2018-09-04T22:52:01.568Z,44.20
2018-09-04T22:54:30.051Z,43.00
2018-09-04T22:56:58.229Z,46.97
2018-09-04T22:59:27.135Z,47.20
2018-09-04T23:01:55.343Z,46.40
2018-09-04T23:04:23.536Z,44.90
2018-09-04T23:06:51.847Z,45.60
2018-09-04T23:09:20.085Z,42.07
2018-09-04T23:11:48.568Z,42.20
2018-09-04T23:14:17.092Z,41.80
2018-09-04T23:16:45.294Z,41.70
2018-09-04T23:19:13.585Z,39.63
2018-09-04T23:21:41.759Z,48.57
2018-09-04T23:24:10.172Z,59.80
2018-09-04T23:26:38.418Z,47.67
2018-09-04T23:29:07.428Z,44.43
2018-09-04T23:31:35.632Z,47.60
2018-09-04T23:34:03.822Z,49.43
2018-09-04T23:36:32.003Z,52.40
2018-09-04T23:39:00.224Z,50.20
2018-09-04T23:41:28.502Z,49.27
2018-09-04T23:43:56.736Z,50.37
2018-09-04T23:46:25.040Z,46.17
2018-09-04T23:48:53.212Z,41.90
2018-09-04T23:51:21.421Z,46.37
2018-09-04T23:53:49.678Z,44.67
2018-09-04T23:56:18.117Z,42.13
2018-09-04T23:58:46.295Z,50.33
